»·PEaware :: UPS1112 KABQ-KSDF

UPS1112 :: KABQ-KSDF

FLIGHT INFORMATION

Flight Status: Arrived
Operator:
United Parcel Service
More flights by this operator :: More flights under this callsign
Pilot: Drew L. (13237)
Aircraft: BOEING 757-200
(B752)
More flights by this aircraft type
Origin: KABQ Albuquerque Intl Sunport
United States
Destination: KSDF Louisville Intl-Standiford
United States
More flights between these airports :: More routes between these airports
Route: FYSTA3 FTI PUB HGO HYS MCI J24 STL CHERI DAMEN4
File this flight plan on PilotEdge
Remarks: PBN / A1B3B4B5C4D4O4 DOF / 181009 REG / N538SB EET / KZDV0022 KZKC0100 KZID0212 OPR / UPS PER / D RMK / TCAS SIMBRIEF
Altitude:
(Current/Filed)
37,000ft
Speed:
(Current/Filed)
461kts
Departed: 09-Oct-18 02:35 AM
Arrived: 09-Oct-18 05:15 AM
Distance/Time
Traveled:
1020nm/2:40
Distance/Time
To Go:
Arrived

Flight Plot

Page will automatically refresh every two minutes.

Flight plan parsing failed; only flown route is shown


Map Options




Map Legend


Flown Route
Filed Route
Departure Airport
Arrival Airport
Navaid (VOR, NDB)
Fix

Horizontal Profiles

Position Reports

Time Latitude Longitude Heading Altitude Ground
Speed
09-Oct-18 01:47 35.030708 -106.624695 315 5324ft 0kts
09-Oct-18 01:48 35.030708 -106.624695 315 5324ft 0kts
09-Oct-18 01:49 35.030708 -106.624695 315 5324ft 0kts
09-Oct-18 01:50 35.030708 -106.624695 315 5324ft 0kts
09-Oct-18 01:51 35.030708 -106.624695 315 5324ft 0kts
09-Oct-18 01:52 35.030708 -106.624695 315 5324ft 0kts
09-Oct-18 01:53 35.030708 -106.624695 315 5324ft 0kts
09-Oct-18 01:54 35.030708 -106.624695 315 5324ft 0kts
09-Oct-18 01:55 35.030708 -106.624695 315 5324ft 0kts
09-Oct-18 01:56 35.030708 -106.624695 315 5324ft 0kts
09-Oct-18 01:57 35.030708 -106.624695 315 5324ft 0kts
09-Oct-18 01:58 35.030708 -106.624695 315 5324ft 0kts
09-Oct-18 01:59 35.030708 -106.624695 315 5324ft 0kts
09-Oct-18 02:00 35.030708 -106.624695 315 5324ft 0kts
09-Oct-18 02:01 35.030708 -106.624695 315 5324ft 0kts
09-Oct-18 02:02 35.030708 -106.624695 315 5324ft 0kts
09-Oct-18 02:03 35.030708 -106.624695 315 5324ft 0kts
09-Oct-18 02:04 35.030708 -106.624695 315 5324ft 0kts
09-Oct-18 02:05 35.030708 -106.624695 315 5324ft 0kts
09-Oct-18 02:06 35.030708 -106.624695 315 5324ft 0kts
09-Oct-18 02:07 35.030708 -106.624695 315 5324ft 0kts
09-Oct-18 02:08 35.030708 -106.624695 315 5324ft 0kts
09-Oct-18 02:09 35.030708 -106.624695 315 5324ft 0kts
09-Oct-18 02:10 35.030708 -106.624695 315 5324ft 0kts
09-Oct-18 02:11 35.030708 -106.624695 315 5324ft 0kts
09-Oct-18 02:12 35.030708 -106.624695 315 5324ft 0kts
09-Oct-18 02:13 35.030708 -106.624695 315 5324ft 0kts
09-Oct-18 02:14 35.030708 -106.624695 315 5324ft 0kts
09-Oct-18 02:15 35.030708 -106.624695 315 5324ft 0kts
09-Oct-18 02:16 35.030708 -106.624695 315 5324ft 0kts
09-Oct-18 02:17 35.030708 -106.624695 315 5324ft 0kts
09-Oct-18 02:18 35.030708 -106.624695 315 5324ft 0kts
09-Oct-18 02:19 35.030708 -106.624695 315 5324ft 0kts
09-Oct-18 02:20 35.030708 -106.624695 315 5324ft 0kts
09-Oct-18 02:21 35.030708 -106.624695 315 5324ft 0kts
09-Oct-18 02:22 35.030708 -106.624695 315 5324ft 0kts
09-Oct-18 02:23 35.030708 -106.624695 315 5324ft 0kts
09-Oct-18 02:24 35.030708 -106.624694 315 5324ft 0kts
09-Oct-18 02:25 35.030571 -106.624133 255 5324ft 2kts
09-Oct-18 02:26 35.030723 -106.623827 223 5324ft 0kts
09-Oct-18 02:27 35.030723 -106.623827 223 5324ft 0kts
09-Oct-18 02:28 35.029759 -106.623751 67 5324ft 12kts
09-Oct-18 02:29 35.033156 -106.619550 43 5326ft 18kts
09-Oct-18 02:30 35.036828 -106.615121 44 5326ft 21kts
09-Oct-18 02:31 35.042296 -106.613599 49 5326ft 15kts
09-Oct-18 02:32 35.042449 -106.605165 82 5326ft 30kts
09-Oct-18 02:33 35.042545 -106.597022 89 5339ft 23kts
09-Oct-18 02:34 35.042609 -106.585463 90 5350ft 32kts
09-Oct-18 02:35 35.042559 -106.577020 90 5369ft 20kts
09-Oct-18 02:36 35.044071 -106.576371 269 5369ft 0kts
09-Oct-18 02:37 35.044168 -106.592845 269 5343ft 150kts
09-Oct-18 02:38 35.043368 -106.653985 265 7025ft 213kts
09-Oct-18 02:39 35.067414 -106.727258 341 9253ft 277kts
09-Oct-18 02:40 35.144132 -106.714379 12 10005ft 282kts
09-Oct-18 02:41 35.189550 -106.637504 71 11645ft 325kts
09-Oct-18 02:42 35.222180 -106.520738 70 13911ft 385kts
09-Oct-18 02:43 35.260224 -106.394841 71 17016ft 409kts
09-Oct-18 02:44 35.302944 -106.263020 72 19839ft 429kts
09-Oct-18 02:45 35.347485 -106.124259 74 22406ft 445kts
09-Oct-18 02:46 35.393780 -105.980957 76 24594ft 462kts
09-Oct-18 02:47 35.439177 -105.832819 77 26735ft 472kts
09-Oct-18 02:48 35.486599 -105.681195 78 28545ft 484kts
09-Oct-18 02:49 35.535525 -105.526551 78 30317ft 492kts
09-Oct-18 02:50 35.584166 -105.370464 80 32265ft 486kts
09-Oct-18 02:51 35.635410 -105.219172 70 34412ft 490kts
09-Oct-18 02:52 35.742115 -105.103676 32 35474ft 547kts
09-Oct-18 02:53 35.892974 -105.065963 11 36651ft 562kts
09-Oct-18 02:54 36.044522 -105.032807 16 36970ft 553kts
09-Oct-18 02:55 36.194131 -104.994294 17 36993ft 551kts
09-Oct-18 02:56 36.343419 -104.955728 16 37005ft 552kts
09-Oct-18 02:57 36.492624 -104.916541 17 37010ft 552kts
09-Oct-18 02:58 36.642574 -104.875699 18 36981ft 551kts
09-Oct-18 02:59 36.792095 -104.835581 17 36982ft 552kts
09-Oct-18 03:00 36.941783 -104.795598 17 36980ft 551kts
09-Oct-18 03:01 37.092940 -104.755013 16 37001ft 565kts
09-Oct-18 03:02 37.247462 -104.713464 15 36998ft 575kts
09-Oct-18 03:03 37.375484 -104.678899 15 37004ft 576kts
09-Oct-18 03:04 37.557909 -104.629406 15 37009ft 575kts
09-Oct-18 03:05 37.713671 -104.586943 15 37018ft 576kts
09-Oct-18 03:06 37.844141 -104.551234 16 37026ft 576kts
09-Oct-18 03:07 38.026144 -104.501216 15 37033ft 576kts
09-Oct-18 03:08 38.154111 -104.466484 15 37006ft 575kts
09-Oct-18 03:09 38.271957 -104.418131 35 37016ft 561kts
09-Oct-18 03:10 38.381907 -104.292733 61 37014ft 525kts
09-Oct-18 03:11 38.475414 -104.149699 61 37018ft 526kts
09-Oct-18 03:12 38.568067 -104.006557 61 37020ft 525kts
09-Oct-18 03:13 38.660823 -103.863223 61 37036ft 526kts
09-Oct-18 03:14 38.753116 -103.718396 62 37054ft 524kts
09-Oct-18 03:15 38.810488 -103.561072 95 37063ft 462kts
09-Oct-18 03:16 38.819676 -103.398960 100 37053ft 452kts
09-Oct-18 03:17 38.824187 -103.239123 102 37056ft 449kts
09-Oct-18 03:18 38.827716 -103.080444 100 37046ft 449kts
09-Oct-18 03:19 38.831845 -102.923209 99 37034ft 449kts
09-Oct-18 03:20 38.834993 -102.766380 99 37031ft 447kts
09-Oct-18 03:21 38.837762 -102.609328 99 37038ft 448kts
09-Oct-18 03:22 38.840309 -102.451999 99 36923ft 449kts
09-Oct-18 03:23 38.842638 -102.295671 100 37044ft 446kts
09-Oct-18 03:24 38.843884 -102.139652 100 37043ft 447kts
09-Oct-18 03:25 38.846509 -101.982295 100 37044ft 446kts
09-Oct-18 03:26 38.848324 -101.825173 100 37044ft 449kts
09-Oct-18 03:27 38.849843 -101.667966 100 37046ft 448kts
09-Oct-18 03:28 38.851130 -101.510337 100 37044ft 447kts
09-Oct-18 03:29 38.850042 -101.353415 103 37045ft 443kts
09-Oct-18 03:30 38.847975 -101.196836 101 37043ft 446kts
09-Oct-18 03:31 38.848128 -101.040309 101 37047ft 446kts
09-Oct-18 03:32 38.851406 -100.881345 99 37046ft 460kts
09-Oct-18 03:33 38.852978 -100.717500 100 37041ft 468kts
09-Oct-18 03:34 38.853201 -100.552692 100 37032ft 468kts
09-Oct-18 03:35 38.853836 -100.387860 100 37024ft 468kts
09-Oct-18 03:36 38.853637 -100.223700 100 37016ft 466kts
09-Oct-18 03:37 38.852986 -100.060386 100 37016ft 466kts
09-Oct-18 03:38 38.852068 -99.896294 101 37013ft 466kts
09-Oct-18 03:39 38.849969 -99.732497 101 37000ft 467kts
09-Oct-18 03:40 38.848448 -99.568579 100 36980ft 466kts
09-Oct-18 03:41 38.846818 -99.405278 100 36981ft 468kts
09-Oct-18 03:42 38.849045 -99.240283 92 36987ft 480kts
09-Oct-18 03:43 38.868787 -99.072829 91 36978ft 481kts
09-Oct-18 03:44 38.887904 -98.905578 91 36966ft 479kts
09-Oct-18 03:45 38.905739 -98.738736 92 36963ft 480kts
09-Oct-18 03:46 38.924101 -98.571171 92 36964ft 481kts
09-Oct-18 03:47 38.942405 -98.403660 92 36965ft 482kts
09-Oct-18 03:48 38.960263 -98.238320 92 36959ft 482kts
09-Oct-18 03:49 38.978243 -98.069523 92 36955ft 483kts
09-Oct-18 03:50 38.996001 -97.900373 92 36956ft 485kts
09-Oct-18 03:51 39.014510 -97.730727 92 36958ft 486kts
09-Oct-18 03:52 39.032916 -97.560598 94 36959ft 485kts
09-Oct-18 03:53 39.045312 -97.390488 93 36959ft 486kts
09-Oct-18 03:54 39.061368 -97.221143 93 36957ft 486kts
09-Oct-18 03:55 39.079328 -97.050490 91 36957ft 490kts
09-Oct-18 03:56 39.096528 -96.879395 91 36957ft 492kts
09-Oct-18 03:57 39.113839 -96.708553 90 36939ft 492kts
09-Oct-18 03:58 39.130684 -96.536504 91 36940ft 491kts
09-Oct-18 03:59 39.145810 -96.364622 91 36940ft 491kts
09-Oct-18 04:00 39.161079 -96.194024 91 36936ft 490kts
09-Oct-18 04:01 39.176897 -96.022597 91 36924ft 491kts
09-Oct-18 04:02 39.191374 -95.851309 92 36921ft 490kts
09-Oct-18 04:03 39.207379 -95.679593 91 36922ft 491kts
09-Oct-18 04:04 39.222474 -95.507839 91 36923ft 490kts
09-Oct-18 04:05 39.236660 -95.336541 92 36929ft 489kts
09-Oct-18 04:06 39.250537 -95.165569 92 36933ft 489kts
09-Oct-18 04:07 39.264133 -94.994439 92 36943ft 489kts
09-Oct-18 04:08 39.277522 -94.822491 90 36957ft 491kts
09-Oct-18 04:09 39.276070 -94.653364 101 36962ft 480kts
09-Oct-18 04:10 39.262418 -94.485192 104 36962ft 477kts
09-Oct-18 04:11 39.248083 -94.318966 103 36963ft 480kts
09-Oct-18 04:12 39.234525 -94.151127 103 36968ft 480kts
09-Oct-18 04:13 39.220570 -93.983582 104 36964ft 478kts
09-Oct-18 04:14 39.205851 -93.815989 103 36961ft 478kts
09-Oct-18 04:15 39.190817 -93.648234 104 36983ft 478kts
09-Oct-18 04:16 39.175070 -93.481707 103 36992ft 479kts
09-Oct-18 04:17 39.159596 -93.314546 105 36995ft 477kts
09-Oct-18 04:18 39.144182 -93.147858 104 36991ft 477kts
09-Oct-18 04:19 39.128368 -92.981376 103 36990ft 476kts
09-Oct-18 04:20 39.112158 -92.815004 102 36986ft 476kts
09-Oct-18 04:21 39.096390 -92.654630 102 36987ft 476kts
09-Oct-18 04:22 39.078375 -92.488502 103 36995ft 475kts
09-Oct-18 04:23 39.061033 -92.323678 103 37002ft 475kts
09-Oct-18 04:24 39.045126 -92.158800 102 37003ft 475kts
09-Oct-18 04:25 39.027956 -91.993842 104 37008ft 474kts
09-Oct-18 04:26 39.009342 -91.828965 103 37012ft 475kts
09-Oct-18 04:27 38.991460 -91.664024 103 37013ft 476kts
09-Oct-18 04:28 38.973466 -91.498899 102 37013ft 475kts
09-Oct-18 04:29 38.955229 -91.333598 103 37016ft 475kts
09-Oct-18 04:30 38.937774 -91.169623 102 37023ft 475kts
09-Oct-18 04:31 38.919503 -91.003675 101 37031ft 480kts
09-Oct-18 04:32 38.901144 -90.838060 101 37034ft 480kts
09-Oct-18 04:33 38.881631 -90.673355 101 37040ft 479kts
09-Oct-18 04:34 38.861610 -90.507558 101 37048ft 479kts
09-Oct-18 04:35 38.839760 -90.346820 102 37060ft 479kts
09-Oct-18 04:36 38.816434 -90.183261 103 37066ft 478kts
09-Oct-18 04:37 38.792406 -90.019340 103 37073ft 478kts
09-Oct-18 04:38 38.768955 -89.854562 103 37072ft 478kts
09-Oct-18 04:39 38.745180 -89.690009 103 37067ft 478kts
09-Oct-18 04:40 38.720259 -89.526045 103 37066ft 478kts
09-Oct-18 04:41 38.695737 -89.361480 104 37082ft 478kts
09-Oct-18 04:42 38.671017 -89.199719 103 37093ft 478kts
09-Oct-18 04:43 38.646339 -89.036008 103 37097ft 478kts
09-Oct-18 04:44 38.621070 -88.871524 102 37099ft 478kts
09-Oct-18 04:45 38.595631 -88.708414 102 35922ft 477kts
09-Oct-18 04:46 38.569660 -88.543889 103 33968ft 482kts
09-Oct-18 04:47 38.541908 -88.378678 103 32018ft 486kts
09-Oct-18 04:48 38.516961 -88.221285 103 30132ft 474kts
09-Oct-18 04:49 38.491509 -88.061830 103 28159ft 459kts
09-Oct-18 04:50 38.466906 -87.907711 103 26193ft 445kts
09-Oct-18 04:51 38.442407 -87.758655 104 24229ft 431kts
09-Oct-18 04:52 38.418390 -87.614073 104 22261ft 418kts
09-Oct-18 04:53 38.394706 -87.474488 104 20300ft 404kts
09-Oct-18 04:54 38.371581 -87.339882 105 18342ft 391kts
09-Oct-18 04:55 38.349817 -87.208579 105 16366ft 379kts
09-Oct-18 04:56 38.328116 -87.081539 105 14389ft 366kts
09-Oct-18 04:57 38.305719 -86.962724 103 12871ft 340kts
09-Oct-18 04:58 38.288039 -86.850989 104 11478ft 316kts
09-Oct-18 04:59 38.269994 -86.746755 104 10091ft 300kts
09-Oct-18 05:00 38.252453 -86.646844 102 8697ft 288kts
09-Oct-18 05:01 38.235537 -86.550941 101 7466ft 274kts
09-Oct-18 05:02 38.240985 -86.459474 74 6490ft 265kts
09-Oct-18 05:03 38.258923 -86.373976 74 5973ft 233kts
09-Oct-18 05:04 38.272593 -86.308105 74 5611ft 221kts
09-Oct-18 05:05 38.287845 -86.236671 75 4856ft 194kts
09-Oct-18 05:06 38.299632 -86.171849 75 3872ft 191kts
09-Oct-18 05:07 38.314547 -86.108063 74 3495ft 191kts
09-Oct-18 05:08 38.328287 -86.043447 74 3493ft 192kts
09-Oct-18 05:09 38.341867 -85.978374 74 3492ft 193kts
09-Oct-18 05:10 38.352697 -85.912528 100 3496ft 194kts
09-Oct-18 05:11 38.339415 -85.852624 104 3001ft 177kts
09-Oct-18 05:12 38.322654 -85.795629 126 2992ft 174kts
09-Oct-18 05:13 38.277713 -85.778389 165 2396ft 175kts
09-Oct-18 05:14 38.238248 -85.765691 164 1582ft 138kts
09-Oct-18 05:15 38.201952 -85.753709 164 875ft 139kts
09-Oct-18 05:16 38.173526 -85.744331 165 481ft 85kts
09-Oct-18 05:17 38.164698 -85.736427 81 467ft 11kts

Navigation Log

Ident Type
Flight plan parsing failed, navigation log unavailable